Terminal Aerodrome Forecast
Issued by NWS St Louis, MO

Home | Current Version | Previous Version | Text Only | Print | Product List | Glossary On
Versions: 1 2 3 4 5 6 7 8 9 10 11 12 13 14 15 16 17 18 19 20 21 22 23 24 25 26 27 28 29 30 31 32
000
FTUS43 KLSX 271209 AAA
TAFSTL
TAF AMD
KSTL 271209Z 2712/2818 12010KT 6SM BR SCT007 OVC100
     FM271500 16013G20KT P6SM SCT030
     FM271900 19014G20KT P6SM VCTS OVC040CB
      TEMPO 2720/2723 3SM TSRA OVC025CB
     FM280100 21006KT P6SM SCT110=

USA.gov is the U.S. government's official web portal to all federal, state and local government web resources and services.